sensor_id;sensor_type;location;lat;lon;timestamp;temperature;humidity
61255;DHT22;47128;47.530;8.584;2022-08-25T00:02:05;18.00;99.90
61255;DHT22;47128;47.530;8.584;2022-08-25T00:04:32;17.90;99.90
61255;DHT22;47128;47.530;8.584;2022-08-25T00:07:00;18.00;99.90
61255;DHT22;47128;47.530;8.584;2022-08-25T00:09:26;17.90;99.90
61255;DHT22;47128;47.530;8.584;2022-08-25T00:11:53;17.80;99.90
61255;DHT22;47128;47.530;8.584;2022-08-25T00:14:22;17.80;99.90
61255;DHT22;47128;47.530;8.584;2022-08-25T00:16:49;17.80;99.90
61255;DHT22;47128;47.530;8.584;2022-08-25T00:19:18;17.90;99.90
61255;DHT22;47128;47.530;8.584;2022-08-25T00:21:45;17.90;99.90
61255;DHT22;47128;47.530;8.584;2022-08-25T00:24:12;17.70;99.90
61255;DHT22;47128;47.530;8.584;2022-08-25T00:26:40;17.70;99.90
61255;DHT22;47128;47.530;8.584;2022-08-25T00:29:07;17.70;99.90
61255;DHT22;47128;47.530;8.584;2022-08-25T00:31:33;17.70;99.90
61255;DHT22;47128;47.530;8.584;2022-08-25T00:33:59;17.60;99.90
61255;DHT22;47128;47.530;8.584;2022-08-25T00:36:26;17.70;99.90
61255;DHT22;47128;47.530;8.584;2022-08-25T00:38:53;17.70;99.90
61255;DHT22;47128;47.530;8.584;2022-08-25T00:41:22;17.70;99.90
61255;DHT22;47128;47.530;8.584;2022-08-25T00:43:54;17.70;99.90
61255;DHT22;47128;47.530;8.584;2022-08-25T00:46:24;17.40;99.90
61255;DHT22;47128;47.530;8.584;2022-08-25T00:48:54;17.50;99.90
61255;DHT22;47128;47.530;8.584;2022-08-25T00:51:29;17.50;99.90
61255;DHT22;47128;47.530;8.584;2022-08-25T00:53:57;17.50;99.90
61255;DHT22;47128;47.530;8.584;2022-08-25T00:56:23;17.50;99.90
61255;DHT22;47128;47.530;8.584;2022-08-25T00:58:50;17.40;99.90
61255;DHT22;47128;47.530;8.584;2022-08-25T01:01:15;17.40;99.90
61255;DHT22;47128;47.530;8.584;2022-08-25T01:03:41;17.40;99.90
61255;DHT22;47128;47.530;8.584;2022-08-25T01:06:07;17.40;99.90
61255;DHT22;47128;47.530;8.584;2022-08-25T01:08:34;17.20;99.90
61255;DHT22;47128;47.530;8.584;2022-08-25T01:11:06;17.20;99.90
61255;DHT22;47128;47.530;8.584;2022-08-25T01:16:04;17.30;99.90
61255;DHT22;47128;47.530;8.584;2022-08-25T01:18:46;17.30;99.90
61255;DHT22;47128;47.530;8.584;2022-08-25T01:21:13;17.30;99.90
61255;DHT22;47128;47.530;8.584;2022-08-25T01:23:38;17.10;99.90
61255;DHT22;47128;47.530;8.584;2022-08-25T01:26:15;17.10;99.90
61255;DHT22;47128;47.530;8.584;2022-08-25T01:28:43;17.10;99.90
61255;DHT22;47128;47.530;8.584;2022-08-25T01:31:29;17.20;99.90
61255;DHT22;47128;47.530;8.584;2022-08-25T01:33:56;17.00;99.90
61255;DHT22;47128;47.530;8.584;2022-08-25T01:36:23;17.10;99.90
61255;DHT22;47128;47.530;8.584;2022-08-25T01:38:49;17.20;99.90
61255;DHT22;47128;47.530;8.584;2022-08-25T01:44:00;17.10;99.90
61255;DHT22;47128;47.530;8.584;2022-08-25T01:46:26;17.10;99.90
61255;DHT22;47128;47.530;8.584;2022-08-25T01:48:52;17.00;99.90
61255;DHT22;47128;47.530;8.584;2022-08-25T01:51:23;17.00;99.90
61255;DHT22;47128;47.530;8.584;2022-08-25T01:53:50;17.00;99.90
61255;DHT22;47128;47.530;8.584;2022-08-25T01:56:16;17.10;99.90
61255;DHT22;47128;47.530;8.584;2022-08-25T01:58:47;17.10;99.90
61255;DHT22;47128;47.530;8.584;2022-08-25T02:01:19;17.00;99.90
61255;DHT22;47128;47.530;8.584;2022-08-25T02:03:48;16.80;99.90
61255;DHT22;47128;47.530;8.584;2022-08-25T02:06:24;16.90;99.90
61255;DHT22;47128;47.530;8.584;2022-08-25T02:08:57;16.90;99.90
61255;DHT22;47128;47.530;8.584;2022-08-25T02:11:23;16.90;99.90
61255;DHT22;47128;47.530;8.584;2022-08-25T02:13:50;16.90;99.90
61255;DHT22;47128;47.530;8.584;2022-08-25T02:16:22;16.90;99.90
61255;DHT22;47128;47.530;8.584;2022-08-25T02:18:49;16.90;99.90
61255;DHT22;47128;47.530;8.584;2022-08-25T02:21:15;16.80;99.90
61255;DHT22;47128;47.530;8.584;2022-08-25T02:23:41;16.80;99.90
61255;DHT22;47128;47.530;8.584;2022-08-25T02:26:08;16.90;99.90
61255;DHT22;47128;47.530;8.584;2022-08-25T02:28:34;16.90;99.90
61255;DHT22;47128;47.530;8.584;2022-08-25T02:31:03;16.80;99.90
61255;DHT22;47128;47.530;8.584;2022-08-25T02:33:28;16.80;99.90
61255;DHT22;47128;47.530;8.584;2022-08-25T02:35:59;16.70;99.90
61255;DHT22;47128;47.530;8.584;2022-08-25T02:38:29;16.60;99.90
61255;DHT22;47128;47.530;8.584;2022-08-25T02:40:56;16.70;99.90
61255;DHT22;47128;47.530;8.584;2022-08-25T02:43:23;16.70;99.90
61255;DHT22;47128;47.530;8.584;2022-08-25T02:45:49;16.60;99.90
61255;DHT22;47128;47.530;8.584;2022-08-25T02:48:14;16.60;99.90
61255;DHT22;47128;47.530;8.584;2022-08-25T02:50:44;16.50;99.90
61255;DHT22;47128;47.530;8.584;2022-08-25T02:53:10;16.60;99.90
61255;DHT22;47128;47.530;8.584;2022-08-25T02:55:35;16.40;99.90
61255;DHT22;47128;47.530;8.584;2022-08-25T02:58:01;16.50;99.90
61255;DHT22;47128;47.530;8.584;2022-08-25T03:00:27;16.40;99.90
61255;DHT22;47128;47.530;8.584;2022-08-25T03:02:52;16.50;99.90
61255;DHT22;47128;47.530;8.584;2022-08-25T03:05:18;16.50;99.90
61255;DHT22;47128;47.530;8.584;2022-08-25T03:07:44;16.60;99.90
61255;DHT22;47128;47.530;8.584;2022-08-25T03:10:13;16.50;99.90
61255;DHT22;47128;47.530;8.584;2022-08-25T03:12:40;16.60;99.90
61255;DHT22;47128;47.530;8.584;2022-08-25T03:15:07;16.60;99.90
61255;DHT22;47128;47.530;8.584;2022-08-25T03:17:34;16.40;99.90
61255;DHT22;47128;47.530;8.584;2022-08-25T03:19:59;16.30;99.90
61255;DHT22;47128;47.530;8.584;2022-08-25T03:22:25;16.40;99.90
61255;DHT22;47128;47.530;8.584;2022-08-25T03:24:50;16.30;99.90
61255;DHT22;47128;47.530;8.584;2022-08-25T03:27:16;16.40;99.90
61255;DHT22;47128;47.530;8.584;2022-08-25T03:29:42;16.30;99.90
61255;DHT22;47128;47.530;8.584;2022-08-25T03:32:08;16.30;99.90
61255;DHT22;47128;47.530;8.584;2022-08-25T03:34:34;16.40;99.90
61255;DHT22;47128;47.530;8.584;2022-08-25T03:36:59;16.40;99.90
61255;DHT22;47128;47.530;8.584;2022-08-25T03:39:25;16.40;99.90
61255;DHT22;47128;47.530;8.584;2022-08-25T03:41:52;16.40;99.90
61255;DHT22;47128;47.530;8.584;2022-08-25T03:44:19;16.30;99.90
61255;DHT22;47128;47.530;8.584;2022-08-25T03:46:47;16.30;99.90
61255;DHT22;47128;47.530;8.584;2022-08-25T03:49:17;16.30;99.90
61255;DHT22;47128;47.530;8.584;2022-08-25T03:51:46;16.20;99.90
61255;DHT22;47128;47.530;8.584;2022-08-25T03:54:14;16.20;99.90
61255;DHT22;47128;47.530;8.584;2022-08-25T03:56:40;16.20;99.90
61255;DHT22;47128;47.530;8.584;2022-08-25T03:59:06;16.30;99.90
61255;DHT22;47128;47.530;8.584;2022-08-25T04:01:42;16.30;99.90
61255;DHT22;47128;47.530;8.584;2022-08-25T04:04:09;16.20;99.90
61255;DHT22;47128;47.530;8.584;2022-08-25T04:06:36;16.20;99.90
61255;DHT22;47128;47.530;8.584;2022-08-25T04:09:02;16.10;99.90
61255;DHT22;47128;47.530;8.584;2022-08-25T04:11:28;16.00;99.90
61255;DHT22;47128;47.530;8.584;2022-08-25T04:13:56;16.00;99.90
61255;DHT22;47128;47.530;8.584;2022-08-25T04:16:26;16.10;99.90
61255;DHT22;47128;47.530;8.584;2022-08-25T04:18:54;16.10;99.90
61255;DHT22;47128;47.530;8.584;2022-08-25T04:21:20;16.10;99.90
61255;DHT22;47128;47.530;8.584;2022-08-25T04:23:46;16.10;99.90
61255;DHT22;47128;47.530;8.584;2022-08-25T04:26:21;15.90;99.90
61255;DHT22;47128;47.530;8.584;2022-08-25T04:28:47;15.90;99.90
61255;DHT22;47128;47.530;8.584;2022-08-25T04:31:18;15.90;99.90
61255;DHT22;47128;47.530;8.584;2022-08-25T04:33:44;15.90;99.90
61255;DHT22;47128;47.530;8.584;2022-08-25T04:36:12;16.00;99.90
61255;DHT22;47128;47.530;8.584;2022-08-25T04:38:39;16.00;99.90
61255;DHT22;47128;47.530;8.584;2022-08-25T04:41:07;15.90;99.90
61255;DHT22;47128;47.530;8.584;2022-08-25T04:43:34;15.90;99.90
61255;DHT22;47128;47.530;8.584;2022-08-25T04:46:37;15.80;99.90
61255;DHT22;47128;47.530;8.584;2022-08-25T04:48:57;15.80;99.90
61255;DHT22;47128;47.530;8.584;2022-08-25T04:51:34;15.90;99.90
61255;DHT22;47128;47.530;8.584;2022-08-25T04:54:04;15.80;99.90
61255;DHT22;47128;47.530;8.584;2022-08-25T04:56:32;15.80;99.90
61255;DHT22;47128;47.530;8.584;2022-08-25T04:59:02;15.70;99.90
61255;DHT22;47128;47.530;8.584;2022-08-25T05:01:28;15.70;99.90
61255;DHT22;47128;47.530;8.584;2022-08-25T05:03:57;15.70;99.90
61255;DHT22;47128;47.530;8.584;2022-08-25T05:06:24;15.80;99.90
61255;DHT22;47128;47.530;8.584;2022-08-25T05:08:51;15.80;99.90
61255;DHT22;47128;47.530;8.584;2022-08-25T05:11:17;15.80;99.90
61255;DHT22;47128;47.530;8.584;2022-08-25T05:13:45;15.90;99.90
61255;DHT22;47128;47.530;8.584;2022-08-25T05:16:12;15.90;99.90
61255;DHT22;47128;47.530;8.584;2022-08-25T05:18:38;15.80;99.90
61255;DHT22;47128;47.530;8.584;2022-08-25T05:21:09;16.00;99.90
61255;DHT22;47128;47.530;8.584;2022-08-25T05:23:35;16.00;99.90
61255;DHT22;47128;47.530;8.584;2022-08-25T05:26:07;15.80;99.90
61255;DHT22;47128;47.530;8.584;2022-08-25T05:28:33;15.90;99.90
61255;DHT22;47128;47.530;8.584;2022-08-25T05:31:00;16.00;99.90
61255;DHT22;47128;47.530;8.584;2022-08-25T05:33:28;16.10;99.90
61255;DHT22;47128;47.530;8.584;2022-08-25T05:35:54;16.60;99.90
61255;DHT22;47128;47.530;8.584;2022-08-25T05:38:20;17.70;99.90
61255;DHT22;47128;47.530;8.584;2022-08-25T05:40:46;19.10;99.90
61255;DHT22;47128;47.530;8.584;2022-08-25T05:43:12;20.40;97.80
61255;DHT22;47128;47.530;8.584;2022-08-25T05:45:40;21.30;95.90
61255;DHT22;47128;47.530;8.584;2022-08-25T05:48:05;21.80;94.80
61255;DHT22;47128;47.530;8.584;2022-08-25T05:50:31;22.00;94.00
61255;DHT22;47128;47.530;8.584;2022-08-25T05:52:57;22.30;93.30
61255;DHT22;47128;47.530;8.584;2022-08-25T05:55:23;23.10;92.10
61255;DHT22;47128;47.530;8.584;2022-08-25T05:57:48;23.10;91.80
61255;DHT22;47128;47.530;8.584;2022-08-25T06:00:15;23.90;90.70
61255;DHT22;47128;47.530;8.584;2022-08-25T06:02:41;24.30;88.90
61255;DHT22;47128;47.530;8.584;2022-08-25T06:05:14;24.30;89.10
61255;DHT22;47128;47.530;8.584;2022-08-25T06:07:41;24.60;87.80
61255;DHT22;47128;47.530;8.584;2022-08-25T06:10:08;23.50;88.80
61255;DHT22;47128;47.530;8.584;2022-08-25T06:12:39;22.80;90.80
61255;DHT22;47128;47.530;8.584;2022-08-25T06:15:06;21.80;92.40
61255;DHT22;47128;47.530;8.584;2022-08-25T06:17:32;20.70;94.50
61255;DHT22;47128;47.530;8.584;2022-08-25T06:20:00;19.90;96.30
61255;DHT22;47128;47.530;8.584;2022-08-25T06:22:26;19.40;97.80
61255;DHT22;47128;47.530;8.584;2022-08-25T06:24:53;19.00;98.90
61255;DHT22;47128;47.530;8.584;2022-08-25T06:27:20;18.90;99.70
61255;DHT22;47128;47.530;8.584;2022-08-25T06:29:46;18.70;99.90
61255;DHT22;47128;47.530;8.584;2022-08-25T06:32:11;18.60;99.90
61255;DHT22;47128;47.530;8.584;2022-08-25T06:34:37;18.30;99.90
61255;DHT22;47128;47.530;8.584;2022-08-25T06:37:03;18.30;99.90
61255;DHT22;47128;47.530;8.584;2022-08-25T06:39:28;18.40;99.90
61255;DHT22;47128;47.530;8.584;2022-08-25T06:42:04;18.50;99.90
61255;DHT22;47128;47.530;8.584;2022-08-25T06:44:30;18.50;99.90
61255;DHT22;47128;47.530;8.584;2022-08-25T06:46:56;18.60;99.90
61255;DHT22;47128;47.530;8.584;2022-08-25T06:49:21;18.70;99.90
61255;DHT22;47128;47.530;8.584;2022-08-25T06:51:48;18.70;99.90
61255;DHT22;47128;47.530;8.584;2022-08-25T06:54:15;18.70;99.90
61255;DHT22;47128;47.530;8.584;2022-08-25T06:56:41;18.80;99.90
61255;DHT22;47128;47.530;8.584;2022-08-25T06:59:08;18.80;99.90
61255;DHT22;47128;47.530;8.584;2022-08-25T07:01:34;18.90;99.90
61255;DHT22;47128;47.530;8.584;2022-08-25T07:04:03;18.90;99.90
61255;DHT22;47128;47.530;8.584;2022-08-25T07:06:31;18.90;99.90
61255;DHT22;47128;47.530;8.584;2022-08-25T07:08:58;19.00;99.90
61255;DHT22;47128;47.530;8.584;2022-08-25T07:11:24;19.10;99.90
61255;DHT22;47128;47.530;8.584;2022-08-25T07:13:50;19.20;99.90
61255;DHT22;47128;47.530;8.584;2022-08-25T07:16:18;19.20;99.90
61255;DHT22;47128;47.530;8.584;2022-08-25T07:18:45;19.50;99.90
61255;DHT22;47128;47.530;8.584;2022-08-25T07:21:12;21.20;99.90
61255;DHT22;47128;47.530;8.584;2022-08-25T07:23:44;23.30;95.30
61255;DHT22;47128;47.530;8.584;2022-08-25T07:26:16;26.60;88.70
61255;DHT22;47128;47.530;8.584;2022-08-25T07:28:45;27.00;87.70
61255;DHT22;47128;47.530;8.584;2022-08-25T07:31:11;28.20;83.60
61255;DHT22;47128;47.530;8.584;2022-08-25T07:36:23;28.60;79.70
61255;DHT22;47128;47.530;8.584;2022-08-25T07:38:52;27.60;80.30
61255;DHT22;47128;47.530;8.584;2022-08-25T07:41:18;26.90;81.90
61255;DHT22;47128;47.530;8.584;2022-08-25T07:43:43;26.10;84.10
61255;DHT22;47128;47.530;8.584;2022-08-25T07:46:13;25.40;85.80
61255;DHT22;47128;47.530;8.584;2022-08-25T07:48:39;25.10;87.40
61255;DHT22;47128;47.530;8.584;2022-08-25T07:51:12;24.70;89.00
61255;DHT22;47128;47.530;8.584;2022-08-25T07:53:44;24.70;89.90
61255;DHT22;47128;47.530;8.584;2022-08-25T07:56:13;24.80;89.60
61255;DHT22;47128;47.530;8.584;2022-08-25T07:58:41;24.80;89.50
61255;DHT22;47128;47.530;8.584;2022-08-25T08:01:14;24.60;90.00
61255;DHT22;47128;47.530;8.584;2022-08-25T08:03:41;24.40;90.50
61255;DHT22;47128;47.530;8.584;2022-08-25T08:06:12;24.40;90.60
61255;DHT22;47128;47.530;8.584;2022-08-25T08:08:41;24.50;90.60
61255;DHT22;47128;47.530;8.584;2022-08-25T08:11:22;24.70;90.10
61255;DHT22;47128;47.530;8.584;2022-08-25T08:13:48;25.10;89.60
61255;DHT22;47128;47.530;8.584;2022-08-25T08:16:18;25.00;90.00
61255;DHT22;47128;47.530;8.584;2022-08-25T08:18:46;25.10;89.90
61255;DHT22;47128;47.530;8.584;2022-08-25T08:21:17;25.00;90.10
61255;DHT22;47128;47.530;8.584;2022-08-25T08:23:42;24.90;89.70
61255;DHT22;47128;47.530;8.584;2022-08-25T08:26:09;25.10;90.00
61255;DHT22;47128;47.530;8.584;2022-08-25T08:28:35;25.00;89.70
61255;DHT22;47128;47.530;8.584;2022-08-25T08:31:03;25.20;89.50
61255;DHT22;47128;47.530;8.584;2022-08-25T08:33:29;25.30;88.80
61255;DHT22;47128;47.530;8.584;2022-08-25T08:36:01;25.20;89.00
61255;DHT22;47128;47.530;8.584;2022-08-25T08:38:29;25.00;90.00
61255;DHT22;47128;47.530;8.584;2022-08-25T08:52:18;26.60;86.10
61255;DHT22;47128;47.530;8.584;2022-08-25T08:54:45;26.40;86.70
61255;DHT22;47128;47.530;8.584;2022-08-25T08:57:18;26.40;86.10
61255;DHT22;47128;47.530;8.584;2022-08-25T08:59:54;26.30;86.60
61255;DHT22;47128;47.530;8.584;2022-08-25T09:02:39;26.40;86.10
61255;DHT22;47128;47.530;8.584;2022-08-25T09:05:13;26.20;86.40
61255;DHT22;47128;47.530;8.584;2022-08-25T09:07:47;25.90;86.50
61255;DHT22;47128;47.530;8.584;2022-08-25T09:10:18;25.60;87.50
61255;DHT22;47128;47.530;8.584;2022-08-25T09:13:04;25.30;88.10
61255;DHT22;47128;47.530;8.584;2022-08-25T09:18:30;26.00;87.80
61255;DHT22;47128;47.530;8.584;2022-08-25T09:27:14;26.40;86.20
61255;DHT22;47128;47.530;8.584;2022-08-25T09:32:21;26.20;87.00
61255;DHT22;47128;47.530;8.584;2022-08-25T09:34:51;26.40;87.30
61255;DHT22;47128;47.530;8.584;2022-08-25T09:37:22;26.50;86.60
61255;DHT22;47128;47.530;8.584;2022-08-25T09:42:14;26.80;84.60
61255;DHT22;47128;47.530;8.584;2022-08-25T09:44:49;26.60;85.40
61255;DHT22;47128;47.530;8.584;2022-08-25T09:47:23;26.40;85.60
61255;DHT22;47128;47.530;8.584;2022-08-25T09:49:57;26.40;84.90
61255;DHT22;47128;47.530;8.584;2022-08-25T09:55:33;27.00;84.20
61255;DHT22;47128;47.530;8.584;2022-08-25T09:58:21;27.50;83.10
61255;DHT22;47128;47.530;8.584;2022-08-25T10:01:13;27.70;81.50
61255;DHT22;47128;47.530;8.584;2022-08-25T10:04:03;27.80;82.50
61255;DHT22;47128;47.530;8.584;2022-08-25T10:06:55;27.70;81.20
61255;DHT22;47128;47.530;8.584;2022-08-25T10:09:32;27.50;80.50
61255;DHT22;47128;47.530;8.584;2022-08-25T10:12:01;27.40;80.90
61255;DHT22;47128;47.530;8.584;2022-08-25T10:14:34;27.20;80.00
61255;DHT22;47128;47.530;8.584;2022-08-25T10:17:27;26.90;80.20
61255;DHT22;47128;47.530;8.584;2022-08-25T10:20:39;26.80;80.30
61255;DHT22;47128;47.530;8.584;2022-08-25T10:22:44;26.90;80.30
61255;DHT22;47128;47.530;8.584;2022-08-25T10:25:12;27.10;81.00
61255;DHT22;47128;47.530;8.584;2022-08-25T10:49:11;28.90;73.80
61255;DHT22;47128;47.530;8.584;2022-08-25T10:51:54;29.30;71.50
61255;DHT22;47128;47.530;8.584;2022-08-25T10:54:47;29.20;71.20
61255;DHT22;47128;47.530;8.584;2022-08-25T10:59:51;29.40;71.20
61255;DHT22;47128;47.530;8.584;2022-08-25T11:05:15;29.50;70.00
61255;DHT22;47128;47.530;8.584;2022-08-25T11:08:06;29.60;69.60
61255;DHT22;47128;47.530;8.584;2022-08-25T11:13:16;29.90;68.60
61255;DHT22;47128;47.530;8.584;2022-08-25T11:16:02;30.30;66.90
61255;DHT22;47128;47.530;8.584;2022-08-25T11:18:31;30.80;65.50
61255;DHT22;47128;47.530;8.584;2022-08-25T11:21:25;31.00;63.80
61255;DHT22;47128;47.530;8.584;2022-08-25T11:24:25;31.10;64.60
61255;DHT22;47128;47.530;8.584;2022-08-25T11:26:56;31.10;63.40
61255;DHT22;47128;47.530;8.584;2022-08-25T11:29:27;31.40;62.40
61255;DHT22;47128;47.530;8.584;2022-08-25T11:31:58;31.40;61.80
61255;DHT22;47128;47.530;8.584;2022-08-25T11:34:29;31.00;63.00
61255;DHT22;47128;47.530;8.584;2022-08-25T11:37:06;30.40;60.30
61255;DHT22;47128;47.530;8.584;2022-08-25T11:42:53;29.50;66.00
61255;DHT22;47128;47.530;8.584;2022-08-25T11:51:31;29.80;66.40
61255;DHT22;47128;47.530;8.584;2022-08-25T11:54:17;29.90;65.90
61255;DHT22;47128;47.530;8.584;2022-08-25T11:57:00;30.30;66.20
61255;DHT22;47128;47.530;8.584;2022-08-25T12:02:35;30.70;64.50
61255;DHT22;47128;47.530;8.584;2022-08-25T12:16:43;31.10;64.20
61255;DHT22;47128;47.530;8.584;2022-08-25T12:24:59;31.30;63.10
61255;DHT22;47128;47.530;8.584;2022-08-25T12:27:41;30.80;63.30
61255;DHT22;47128;47.530;8.584;2022-08-25T12:30:25;30.60;63.40
61255;DHT22;47128;47.530;8.584;2022-08-25T12:35:57;31.20;62.60
61255;DHT22;47128;47.530;8.584;2022-08-25T12:38:44;31.00;62.40
61255;DHT22;47128;47.530;8.584;2022-08-25T12:41:12;30.90;62.80
61255;DHT22;47128;47.530;8.584;2022-08-25T12:44:14;31.10;62.80
61255;DHT22;47128;47.530;8.584;2022-08-25T12:46:50;31.40;62.20
61255;DHT22;47128;47.530;8.584;2022-08-25T12:49:33;31.70;62.60
61255;DHT22;47128;47.530;8.584;2022-08-25T12:52:01;31.70;60.80
61255;DHT22;47128;47.530;8.584;2022-08-25T12:55:12;31.60;61.60
61255;DHT22;47128;47.530;8.584;2022-08-25T12:57:51;31.90;60.60
61255;DHT22;47128;47.530;8.584;2022-08-25T13:00:35;31.70;60.50
61255;DHT22;47128;47.530;8.584;2022-08-25T13:06:25;32.20;59.70
61255;DHT22;47128;47.530;8.584;2022-08-25T13:09:18;32.40;59.60
61255;DHT22;47128;47.530;8.584;2022-08-25T13:12:17;32.40;59.80
61255;DHT22;47128;47.530;8.584;2022-08-25T13:14:45;32.20;59.30
61255;DHT22;47128;47.530;8.584;2022-08-25T13:17:28;32.10;59.90
61255;DHT22;47128;47.530;8.584;2022-08-25T13:20:14;32.10;59.20
61255;DHT22;47128;47.530;8.584;2022-08-25T13:22:46;32.10;58.20
61255;DHT22;47128;47.530;8.584;2022-08-25T13:25:22;31.80;57.90
61255;DHT22;47128;47.530;8.584;2022-08-25T13:27:59;31.50;58.30
61255;DHT22;47128;47.530;8.584;2022-08-25T13:30:34;31.60;58.60
61255;DHT22;47128;47.530;8.584;2022-08-25T13:33:17;31.70;57.80
61255;DHT22;47128;47.530;8.584;2022-08-25T13:35:50;31.50;58.20
61255;DHT22;47128;47.530;8.584;2022-08-25T13:38:36;31.70;58.70
61255;DHT22;47128;47.530;8.584;2022-08-25T13:41:04;31.50;57.90
61255;DHT22;47128;47.530;8.584;2022-08-25T13:43:31;31.40;58.20
61255;DHT22;47128;47.530;8.584;2022-08-25T13:45:59;31.30;58.50
61255;DHT22;47128;47.530;8.584;2022-08-25T13:48:36;31.10;59.70
61255;DHT22;47128;47.530;8.584;2022-08-25T13:51:23;30.90;60.00
61255;DHT22;47128;47.530;8.584;2022-08-25T13:53:56;30.80;59.20
61255;DHT22;47128;47.530;8.584;2022-08-25T13:56:37;30.80;60.10
61255;DHT22;47128;47.530;8.584;2022-08-25T13:59:11;31.00;59.40
61255;DHT22;47128;47.530;8.584;2022-08-25T14:01:45;31.10;60.00
61255;DHT22;47128;47.530;8.584;2022-08-25T14:04:29;31.10;58.50
61255;DHT22;47128;47.530;8.584;2022-08-25T14:07:25;31.30;58.50
61255;DHT22;47128;47.530;8.584;2022-08-25T14:10:07;31.30;58.70
61255;DHT22;47128;47.530;8.584;2022-08-25T14:12:40;31.60;59.40
61255;DHT22;47128;47.530;8.584;2022-08-25T14:17:42;32.00;58.50
61255;DHT22;47128;47.530;8.584;2022-08-25T14:20:23;32.30;58.20
61255;DHT22;47128;47.530;8.584;2022-08-25T14:22:58;32.40;56.90
61255;DHT22;47128;47.530;8.584;2022-08-25T14:25:29;32.30;57.20
61255;DHT22;47128;47.530;8.584;2022-08-25T14:28:03;32.30;57.10
61255;DHT22;47128;47.530;8.584;2022-08-25T14:30:32;32.50;56.40
61255;DHT22;47128;47.530;8.584;2022-08-25T14:33:00;32.30;56.60
61255;DHT22;47128;47.530;8.584;2022-08-25T14:35:27;31.90;58.10
61255;DHT22;47128;47.530;8.584;2022-08-25T14:37:54;31.60;58.00
61255;DHT22;47128;47.530;8.584;2022-08-25T14:40:19;31.50;57.70
61255;DHT22;47128;47.530;8.584;2022-08-25T14:42:48;31.50;59.10
61255;DHT22;47128;47.530;8.584;2022-08-25T14:45:15;31.40;59.00
61255;DHT22;47128;47.530;8.584;2022-08-25T14:47:41;31.30;58.70
61255;DHT22;47128;47.530;8.584;2022-08-25T14:50:07;31.10;57.90
61255;DHT22;47128;47.530;8.584;2022-08-25T14:52:34;31.00;59.00
61255;DHT22;47128;47.530;8.584;2022-08-25T14:54:59;30.90;57.30
61255;DHT22;47128;47.530;8.584;2022-08-25T14:57:25;31.10;57.80
61255;DHT22;47128;47.530;8.584;2022-08-25T14:59:51;31.30;57.30
61255;DHT22;47128;47.530;8.584;2022-08-25T15:02:18;31.40;57.20
61255;DHT22;47128;47.530;8.584;2022-08-25T15:04:56;31.30;58.20
61255;DHT22;47128;47.530;8.584;2022-08-25T15:07:23;31.10;57.00
61255;DHT22;47128;47.530;8.584;2022-08-25T15:10:08;31.10;58.40
61255;DHT22;47128;47.530;8.584;2022-08-25T15:12:34;31.00;57.80
61255;DHT22;47128;47.530;8.584;2022-08-25T15:15:02;31.00;57.70
61255;DHT22;47128;47.530;8.584;2022-08-25T15:17:28;30.90;57.70
61255;DHT22;47128;47.530;8.584;2022-08-25T15:19:54;31.00;59.40
61255;DHT22;47128;47.530;8.584;2022-08-25T15:22:21;30.90;59.00
61255;DHT22;47128;47.530;8.584;2022-08-25T15:24:47;30.90;57.90
61255;DHT22;47128;47.530;8.584;2022-08-25T15:27:13;31.00;60.10
61255;DHT22;47128;47.530;8.584;2022-08-25T15:29:40;31.10;56.10
61255;DHT22;47128;47.530;8.584;2022-08-25T15:32:07;31.20;56.40
61255;DHT22;47128;47.530;8.584;2022-08-25T15:34:34;31.20;56.60
61255;DHT22;47128;47.530;8.584;2022-08-25T15:37:08;31.10;59.10
61255;DHT22;47128;47.530;8.584;2022-08-25T15:39:34;30.90;58.00
61255;DHT22;47128;47.530;8.584;2022-08-25T15:42:00;30.80;58.70
61255;DHT22;47128;47.530;8.584;2022-08-25T15:44:29;30.70;58.80
61255;DHT22;47128;47.530;8.584;2022-08-25T15:46:56;30.60;57.50
61255;DHT22;47128;47.530;8.584;2022-08-25T15:49:35;30.60;57.30
61255;DHT22;47128;47.530;8.584;2022-08-25T15:52:01;30.70;60.10
61255;DHT22;47128;47.530;8.584;2022-08-25T15:54:28;30.70;58.00
61255;DHT22;47128;47.530;8.584;2022-08-25T15:56:56;30.60;59.60
61255;DHT22;47128;47.530;8.584;2022-08-25T15:59:22;30.40;59.50
61255;DHT22;47128;47.530;8.584;2022-08-25T16:01:48;30.20;60.30
61255;DHT22;47128;47.530;8.584;2022-08-25T16:04:27;30.10;59.90
61255;DHT22;47128;47.530;8.584;2022-08-25T16:07:02;30.10;56.30
61255;DHT22;47128;47.530;8.584;2022-08-25T16:09:46;30.20;59.50
61255;DHT22;47128;47.530;8.584;2022-08-25T16:12:19;30.20;59.90
61255;DHT22;47128;47.530;8.584;2022-08-25T16:14:48;30.10;59.70
61255;DHT22;47128;47.530;8.584;2022-08-25T16:17:14;29.90;59.80
61255;DHT22;47128;47.530;8.584;2022-08-25T16:19:40;29.90;60.20
61255;DHT22;47128;47.530;8.584;2022-08-25T16:22:06;29.90;59.60
61255;DHT22;47128;47.530;8.584;2022-08-25T16:24:32;29.90;59.70
61255;DHT22;47128;47.530;8.584;2022-08-25T16:26:59;30.00;59.60
61255;DHT22;47128;47.530;8.584;2022-08-25T16:29:32;29.90;59.40
61255;DHT22;47128;47.530;8.584;2022-08-25T16:32:10;29.70;59.50
61255;DHT22;47128;47.530;8.584;2022-08-25T16:34:39;29.60;59.30
61255;DHT22;47128;47.530;8.584;2022-08-25T16:37:05;29.50;60.40
61255;DHT22;47128;47.530;8.584;2022-08-25T16:39:30;29.40;60.30
61255;DHT22;47128;47.530;8.584;2022-08-25T16:41:56;29.30;61.00
61255;DHT22;47128;47.530;8.584;2022-08-25T16:44:22;29.20;61.90
61255;DHT22;47128;47.530;8.584;2022-08-25T16:46:49;29.10;60.40
61255;DHT22;47128;47.530;8.584;2022-08-25T16:49:18;29.20;60.90
61255;DHT22;47128;47.530;8.584;2022-08-25T16:51:44;29.00;62.20
61255;DHT22;47128;47.530;8.584;2022-08-25T16:54:10;29.00;62.10
61255;DHT22;47128;47.530;8.584;2022-08-25T16:56:55;29.00;64.00
61255;DHT22;47128;47.530;8.584;2022-08-25T16:59:22;29.00;63.70
61255;DHT22;47128;47.530;8.584;2022-08-25T17:01:48;28.90;65.60
61255;DHT22;47128;47.530;8.584;2022-08-25T17:04:13;28.70;68.50
61255;DHT22;47128;47.530;8.584;2022-08-25T17:06:41;28.50;65.70
61255;DHT22;47128;47.530;8.584;2022-08-25T17:09:09;28.40;67.30
61255;DHT22;47128;47.530;8.584;2022-08-25T17:11:41;28.30;67.10
61255;DHT22;47128;47.530;8.584;2022-08-25T17:14:10;28.20;67.40
61255;DHT22;47128;47.530;8.584;2022-08-25T17:16:35;28.10;68.40
61255;DHT22;47128;47.530;8.584;2022-08-25T17:19:04;28.00;68.50
61255;DHT22;47128;47.530;8.584;2022-08-25T17:21:33;27.80;68.50
61255;DHT22;47128;47.530;8.584;2022-08-25T17:23:59;27.70;68.80
61255;DHT22;47128;47.530;8.584;2022-08-25T17:26:27;27.60;69.00
61255;DHT22;47128;47.530;8.584;2022-08-25T17:28:53;27.50;69.60
61255;DHT22;47128;47.530;8.584;2022-08-25T17:31:19;27.30;70.70
61255;DHT22;47128;47.530;8.584;2022-08-25T17:33:48;27.10;70.20
61255;DHT22;47128;47.530;8.584;2022-08-25T17:36:13;26.80;70.70